sensor_id;sensor_type;location;lat;lon;timestamp;pressure;altitude;pressure_sealevel;temperature
7389;BMP180;3735;50.136;11.062;2022-12-19T00:01:37;99350.00;;;-3.50
7389;BMP180;3735;50.136;11.062;2022-12-19T00:04:06;99348.00;;;-3.50
7389;BMP180;3735;50.136;11.062;2022-12-19T00:06:32;99340.00;;;-3.50
7389;BMP180;3735;50.136;11.062;2022-12-19T00:08:59;99348.00;;;-3.50
7389;BMP180;3735;50.136;11.062;2022-12-19T00:11:27;99349.00;;;-3.50
7389;BMP180;3735;50.136;11.062;2022-12-19T00:13:53;99355.00;;;-3.60
7389;BMP180;3735;50.136;11.062;2022-12-19T00:16:22;99344.00;;;-3.60
7389;BMP180;3735;50.136;11.062;2022-12-19T00:18:50;99336.00;;;-3.60
7389;BMP180;3735;50.136;11.062;2022-12-19T00:21:20;99330.00;;;-3.60
7389;BMP180;3735;50.136;11.062;2022-12-19T00:23:47;99352.00;;;-3.70
7389;BMP180;3735;50.136;11.062;2022-12-19T00:26:33;99342.00;;;-3.70
7389;BMP180;3735;50.136;11.062;2022-12-19T00:29:06;99338.00;;;-3.70
7389;BMP180;3735;50.136;11.062;2022-12-19T00:31:35;99348.00;;;-3.80
7389;BMP180;3735;50.136;11.062;2022-12-19T00:34:01;99332.00;;;-3.80
7389;BMP180;3735;50.136;11.062;2022-12-19T00:36:31;99335.00;;;-3.80
7389;BMP180;3735;50.136;11.062;2022-12-19T00:38:59;99326.00;;;-3.80
7389;BMP180;3735;50.136;11.062;2022-12-19T00:41:31;99325.00;;;-3.80
7389;BMP180;3735;50.136;11.062;2022-12-19T00:44:03;99326.00;;;-3.80
7389;BMP180;3735;50.136;11.062;2022-12-19T00:46:31;99323.00;;;-3.90
7389;BMP180;3735;50.136;11.062;2022-12-19T00:48:58;99332.00;;;-4.00
7389;BMP180;3735;50.136;11.062;2022-12-19T00:51:27;99340.00;;;-4.10
7389;BMP180;3735;50.136;11.062;2022-12-19T00:53:56;99349.00;;;-4.20
7389;BMP180;3735;50.136;11.062;2022-12-19T00:56:29;99349.00;;;-4.30
7389;BMP180;3735;50.136;11.062;2022-12-19T00:58:55;99342.00;;;-4.20
7389;BMP180;3735;50.136;11.062;2022-12-19T01:01:32;99341.00;;;-4.20
7389;BMP180;3735;50.136;11.062;2022-12-19T01:04:01;99331.00;;;-4.30
7389;BMP180;3735;50.136;11.062;2022-12-19T01:06:27;99326.00;;;-4.40
7389;BMP180;3735;50.136;11.062;2022-12-19T01:08:53;99326.00;;;-4.30
7389;BMP180;3735;50.136;11.062;2022-12-19T01:11:22;99324.00;;;-4.30
7389;BMP180;3735;50.136;11.062;2022-12-19T01:14:10;99322.00;;;-4.30
7389;BMP180;3735;50.136;11.062;2022-12-19T01:16:36;99329.00;;;-4.30
7389;BMP180;3735;50.136;11.062;2022-12-19T01:19:02;99329.00;;;-4.30
7389;BMP180;3735;50.136;11.062;2022-12-19T01:21:27;99326.00;;;-4.20
7389;BMP180;3735;50.136;11.062;2022-12-19T01:23:53;99320.00;;;-4.20
7389;BMP180;3735;50.136;11.062;2022-12-19T01:26:19;99314.00;;;-4.00
7389;BMP180;3735;50.136;11.062;2022-12-19T01:28:45;99305.00;;;-4.00
7389;BMP180;3735;50.136;11.062;2022-12-19T01:31:10;99313.00;;;-4.00
7389;BMP180;3735;50.136;11.062;2022-12-19T01:33:36;99337.00;;;-3.90
7389;BMP180;3735;50.136;11.062;2022-12-19T01:36:02;99320.00;;;-3.90
7389;BMP180;3735;50.136;11.062;2022-12-19T01:38:34;99329.00;;;-3.90
7389;BMP180;3735;50.136;11.062;2022-12-19T01:41:01;99318.00;;;-3.80
7389;BMP180;3735;50.136;11.062;2022-12-19T01:43:32;99297.00;;;-3.70
7389;BMP180;3735;50.136;11.062;2022-12-19T01:46:03;99322.00;;;-3.60
7389;BMP180;3735;50.136;11.062;2022-12-19T01:48:39;99332.00;;;-3.70
7389;BMP180;3735;50.136;11.062;2022-12-19T01:51:19;99325.00;;;-3.60
7389;BMP180;3735;50.136;11.062;2022-12-19T01:53:56;99323.00;;;-3.50
7389;BMP180;3735;50.136;11.062;2022-12-19T01:56:31;99330.00;;;-3.60
7389;BMP180;3735;50.136;11.062;2022-12-19T01:59:09;99335.00;;;-3.60
7389;BMP180;3735;50.136;11.062;2022-12-19T02:01:41;99324.00;;;-3.50
7389;BMP180;3735;50.136;11.062;2022-12-19T02:04:08;99328.00;;;-3.50
7389;BMP180;3735;50.136;11.062;2022-12-19T02:06:37;99332.00;;;-3.40
7389;BMP180;3735;50.136;11.062;2022-12-19T02:09:03;99330.00;;;-3.30
7389;BMP180;3735;50.136;11.062;2022-12-19T02:11:29;99323.00;;;-3.40
7389;BMP180;3735;50.136;11.062;2022-12-19T02:13:55;99290.00;;;-3.20
7389;BMP180;3735;50.136;11.062;2022-12-19T02:16:56;99271.00;;;-3.30
7389;BMP180;3735;50.136;11.062;2022-12-19T02:25:44;99264.00;;;-3.30
7389;BMP180;3735;50.136;11.062;2022-12-19T02:28:42;99277.00;;;-3.30
7389;BMP180;3735;50.136;11.062;2022-12-19T02:31:35;99295.00;;;-3.30
7389;BMP180;3735;50.136;11.062;2022-12-19T02:34:15;99308.00;;;-3.30
7389;BMP180;3735;50.136;11.062;2022-12-19T02:39:51;99281.00;;;-3.20
7389;BMP180;3735;50.136;11.062;2022-12-19T02:42:29;99310.00;;;-3.30
7389;BMP180;3735;50.136;11.062;2022-12-19T02:45:05;99304.00;;;-3.30
7389;BMP180;3735;50.136;11.062;2022-12-19T02:47:33;99293.00;;;-3.20
7389;BMP180;3735;50.136;11.062;2022-12-19T02:50:00;99289.00;;;-3.20
7389;BMP180;3735;50.136;11.062;2022-12-19T02:54:56;99276.00;;;-3.30
7389;BMP180;3735;50.136;11.062;2022-12-19T02:57:45;99289.00;;;-3.30
7389;BMP180;3735;50.136;11.062;2022-12-19T03:00:20;99279.00;;;-3.30
7389;BMP180;3735;50.136;11.062;2022-12-19T03:03:23;99291.00;;;-3.30
7389;BMP180;3735;50.136;11.062;2022-12-19T03:12:04;99304.00;;;-3.30
7389;BMP180;3735;50.136;11.062;2022-12-19T03:14:32;99304.00;;;-3.30
7389;BMP180;3735;50.136;11.062;2022-12-19T03:17:06;99271.00;;;-3.20
7389;BMP180;3735;50.136;11.062;2022-12-19T03:19:37;99282.00;;;-3.20
7389;BMP180;3735;50.136;11.062;2022-12-19T03:22:04;99278.00;;;-3.20
7389;BMP180;3735;50.136;11.062;2022-12-19T03:24:30;99276.00;;;-3.20
7389;BMP180;3735;50.136;11.062;2022-12-19T03:27:04;99274.00;;;-3.20
7389;BMP180;3735;50.136;11.062;2022-12-19T03:30:07;99273.00;;;-3.30
7389;BMP180;3735;50.136;11.062;2022-12-19T03:32:37;99286.00;;;-3.30
7389;BMP180;3735;50.136;11.062;2022-12-19T03:35:17;99279.00;;;-3.20
7389;BMP180;3735;50.136;11.062;2022-12-19T03:37:46;99272.00;;;-3.20
7389;BMP180;3735;50.136;11.062;2022-12-19T03:40:21;99268.00;;;-3.20
7389;BMP180;3735;50.136;11.062;2022-12-19T03:42:51;99264.00;;;-3.30
7389;BMP180;3735;50.136;11.062;2022-12-19T03:48:19;99261.00;;;-3.30
7389;BMP180;3735;50.136;11.062;2022-12-19T03:59:20;99269.00;;;-3.20
7389;BMP180;3735;50.136;11.062;2022-12-19T04:01:49;99271.00;;;-3.20
7389;BMP180;3735;50.136;11.062;2022-12-19T04:04:16;99273.00;;;-3.10
7389;BMP180;3735;50.136;11.062;2022-12-19T04:06:44;99262.00;;;-3.00
7389;BMP180;3735;50.136;11.062;2022-12-19T04:09:11;99269.00;;;-3.10
7389;BMP180;3735;50.136;11.062;2022-12-19T04:11:47;99253.00;;;-3.00
7389;BMP180;3735;50.136;11.062;2022-12-19T04:14:21;99247.00;;;-2.90
7389;BMP180;3735;50.136;11.062;2022-12-19T04:20:03;99245.00;;;-2.80
7389;BMP180;3735;50.136;11.062;2022-12-19T04:22:51;99253.00;;;-2.90
7389;BMP180;3735;50.136;11.062;2022-12-19T04:25:27;99253.00;;;-2.70
7389;BMP180;3735;50.136;11.062;2022-12-19T04:28:01;99264.00;;;-2.70
7389;BMP180;3735;50.136;11.062;2022-12-19T04:30:28;99266.00;;;-2.80
7389;BMP180;3735;50.136;11.062;2022-12-19T04:32:55;99248.00;;;-2.80
7389;BMP180;3735;50.136;11.062;2022-12-19T04:35:21;99246.00;;;-2.70
7389;BMP180;3735;50.136;11.062;2022-12-19T04:37:47;99247.00;;;-2.70
7389;BMP180;3735;50.136;11.062;2022-12-19T04:40:13;99233.00;;;-2.70
7389;BMP180;3735;50.136;11.062;2022-12-19T04:42:38;99200.00;;;-2.60
7389;BMP180;3735;50.136;11.062;2022-12-19T04:45:05;99189.00;;;-2.60
7389;BMP180;3735;50.136;11.062;2022-12-19T04:47:31;99195.00;;;-2.80
7389;BMP180;3735;50.136;11.062;2022-12-19T04:49:57;99187.00;;;-2.60
7389;BMP180;3735;50.136;11.062;2022-12-19T04:52:23;99196.00;;;-2.80
7389;BMP180;3735;50.136;11.062;2022-12-19T04:54:48;99191.00;;;-2.60
7389;BMP180;3735;50.136;11.062;2022-12-19T04:57:14;99185.00;;;-2.60
7389;BMP180;3735;50.136;11.062;2022-12-19T04:59:40;99205.00;;;-2.70
7389;BMP180;3735;50.136;11.062;2022-12-19T05:02:06;99208.00;;;-2.80
7389;BMP180;3735;50.136;11.062;2022-12-19T05:04:31;99212.00;;;-2.80
7389;BMP180;3735;50.136;11.062;2022-12-19T05:06:57;99201.00;;;-2.80
7389;BMP180;3735;50.136;11.062;2022-12-19T05:09:23;99226.00;;;-2.90
7389;BMP180;3735;50.136;11.062;2022-12-19T05:11:49;99215.00;;;-2.90
7389;BMP180;3735;50.136;11.062;2022-12-19T05:14:14;99212.00;;;-2.90
7389;BMP180;3735;50.136;11.062;2022-12-19T05:16:40;99219.00;;;-2.90
7389;BMP180;3735;50.136;11.062;2022-12-19T05:19:07;99206.00;;;-3.00
7389;BMP180;3735;50.136;11.062;2022-12-19T05:21:33;99215.00;;;-3.00
7389;BMP180;3735;50.136;11.062;2022-12-19T05:23:58;99225.00;;;-2.90
7389;BMP180;3735;50.136;11.062;2022-12-19T05:26:24;99227.00;;;-2.90
7389;BMP180;3735;50.136;11.062;2022-12-19T05:28:50;99223.00;;;-2.90
7389;BMP180;3735;50.136;11.062;2022-12-19T05:31:19;99216.00;;;-2.90
7389;BMP180;3735;50.136;11.062;2022-12-19T05:33:46;99230.00;;;-2.80
7389;BMP180;3735;50.136;11.062;2022-12-19T05:36:15;99231.00;;;-2.90
7389;BMP180;3735;50.136;11.062;2022-12-19T05:38:41;99227.00;;;-3.00
7389;BMP180;3735;50.136;11.062;2022-12-19T05:41:16;99232.00;;;-2.90
7389;BMP180;3735;50.136;11.062;2022-12-19T05:43:44;99220.00;;;-2.90
7389;BMP180;3735;50.136;11.062;2022-12-19T05:46:11;99226.00;;;-2.80
7389;BMP180;3735;50.136;11.062;2022-12-19T05:48:37;99219.00;;;-2.90
7389;BMP180;3735;50.136;11.062;2022-12-19T05:51:04;99228.00;;;-2.90
7389;BMP180;3735;50.136;11.062;2022-12-19T05:53:30;99205.00;;;-2.90
7389;BMP180;3735;50.136;11.062;2022-12-19T05:56:17;99218.00;;;-2.90
7389;BMP180;3735;50.136;11.062;2022-12-19T05:58:44;99233.00;;;-2.80
7389;BMP180;3735;50.136;11.062;2022-12-19T06:01:27;99234.00;;;-2.80
7389;BMP180;3735;50.136;11.062;2022-12-19T06:03:54;99219.00;;;-2.70
7389;BMP180;3735;50.136;11.062;2022-12-19T06:06:25;99220.00;;;-2.70
7389;BMP180;3735;50.136;11.062;2022-12-19T06:08:58;99217.00;;;-2.70
7389;BMP180;3735;50.136;11.062;2022-12-19T06:11:25;99205.00;;;-2.60
7389;BMP180;3735;50.136;11.062;2022-12-19T06:13:51;99199.00;;;-2.60
7389;BMP180;3735;50.136;11.062;2022-12-19T06:16:20;99199.00;;;-2.60
7389;BMP180;3735;50.136;11.062;2022-12-19T06:18:46;99198.00;;;-2.60
7389;BMP180;3735;50.136;11.062;2022-12-19T06:21:19;99199.00;;;-2.50
7389;BMP180;3735;50.136;11.062;2022-12-19T06:23:46;99196.00;;;-2.40
7389;BMP180;3735;50.136;11.062;2022-12-19T06:26:16;99190.00;;;-2.30
7389;BMP180;3735;50.136;11.062;2022-12-19T06:28:42;99191.00;;;-2.30
7389;BMP180;3735;50.136;11.062;2022-12-19T06:31:09;99182.00;;;-2.20
7389;BMP180;3735;50.136;11.062;2022-12-19T06:33:36;99172.00;;;-2.10
7389;BMP180;3735;50.136;11.062;2022-12-19T06:38:38;99179.00;;;-2.20
7389;BMP180;3735;50.136;11.062;2022-12-19T06:41:04;99159.00;;;-2.10
7389;BMP180;3735;50.136;11.062;2022-12-19T06:43:48;99161.00;;;-2.20
7389;BMP180;3735;50.136;11.062;2022-12-19T06:46:14;99163.00;;;-2.30
7389;BMP180;3735;50.136;11.062;2022-12-19T06:48:40;99167.00;;;-2.10
7389;BMP180;3735;50.136;11.062;2022-12-19T06:51:06;99149.00;;;-2.10
7389;BMP180;3735;50.136;11.062;2022-12-19T06:53:32;99176.00;;;-2.00
7389;BMP180;3735;50.136;11.062;2022-12-19T06:55:59;99163.00;;;-2.00
7389;BMP180;3735;50.136;11.062;2022-12-19T06:58:25;99177.00;;;-2.00
7389;BMP180;3735;50.136;11.062;2022-12-19T07:00:52;99171.00;;;-2.10
7389;BMP180;3735;50.136;11.062;2022-12-19T07:03:25;99187.00;;;-2.00
7389;BMP180;3735;50.136;11.062;2022-12-19T07:05:52;99175.00;;;-2.10
7389;BMP180;3735;50.136;11.062;2022-12-19T07:08:18;99181.00;;;-2.10
7389;BMP180;3735;50.136;11.062;2022-12-19T07:10:44;99182.00;;;-2.10
7389;BMP180;3735;50.136;11.062;2022-12-19T07:13:09;99177.00;;;-2.10
7389;BMP180;3735;50.136;11.062;2022-12-19T07:15:36;99181.00;;;-2.10
7389;BMP180;3735;50.136;11.062;2022-12-19T07:18:05;99181.00;;;-2.10
7389;BMP180;3735;50.136;11.062;2022-12-19T07:20:33;99175.00;;;-2.20
7389;BMP180;3735;50.136;11.062;2022-12-19T07:23:03;99168.00;;;-2.10
7389;BMP180;3735;50.136;11.062;2022-12-19T07:25:30;99173.00;;;-2.20
7389;BMP180;3735;50.136;11.062;2022-12-19T07:27:56;99156.00;;;-2.10
7389;BMP180;3735;50.136;11.062;2022-12-19T07:30:21;99173.00;;;-2.20
7389;BMP180;3735;50.136;11.062;2022-12-19T07:32:47;99178.00;;;-2.20
7389;BMP180;3735;50.136;11.062;2022-12-19T07:35:13;99165.00;;;-2.10
7389;BMP180;3735;50.136;11.062;2022-12-19T07:37:39;99177.00;;;-2.10
7389;BMP180;3735;50.136;11.062;2022-12-19T07:40:05;99187.00;;;-2.10
7389;BMP180;3735;50.136;11.062;2022-12-19T07:42:31;99199.00;;;-2.10
7389;BMP180;3735;50.136;11.062;2022-12-19T07:44:57;99200.00;;;-2.10
7389;BMP180;3735;50.136;11.062;2022-12-19T07:47:23;99200.00;;;-2.00
7389;BMP180;3735;50.136;11.062;2022-12-19T07:49:48;99198.00;;;-1.90
7389;BMP180;3735;50.136;11.062;2022-12-19T07:52:14;99203.00;;;-1.80
7389;BMP180;3735;50.136;11.062;2022-12-19T07:54:40;99201.00;;;-1.80
7389;BMP180;3735;50.136;11.062;2022-12-19T07:57:06;99208.00;;;-1.70
7389;BMP180;3735;50.136;11.062;2022-12-19T07:59:32;99194.00;;;-1.60
7389;BMP180;3735;50.136;11.062;2022-12-19T08:01:58;99199.00;;;-1.60
7389;BMP180;3735;50.136;11.062;2022-12-19T08:04:23;99189.00;;;-1.70
7389;BMP180;3735;50.136;11.062;2022-12-19T08:06:49;99182.00;;;-1.60
7389;BMP180;3735;50.136;11.062;2022-12-19T08:09:15;99211.00;;;-1.60
7389;BMP180;3735;50.136;11.062;2022-12-19T08:11:41;99211.00;;;-1.40
7389;BMP180;3735;50.136;11.062;2022-12-19T08:14:06;99220.00;;;-1.50
7389;BMP180;3735;50.136;11.062;2022-12-19T08:16:33;99216.00;;;-1.50
7389;BMP180;3735;50.136;11.062;2022-12-19T08:19:01;99194.00;;;-1.40
7389;BMP180;3735;50.136;11.062;2022-12-19T08:21:27;99215.00;;;-1.50
7389;BMP180;3735;50.136;11.062;2022-12-19T08:23:53;99211.00;;;-1.30
7389;BMP180;3735;50.136;11.062;2022-12-19T08:26:21;99212.00;;;-1.20
7389;BMP180;3735;50.136;11.062;2022-12-19T08:28:57;99202.00;;;-1.30
7389;BMP180;3735;50.136;11.062;2022-12-19T08:31:26;99201.00;;;-1.30
7389;BMP180;3735;50.136;11.062;2022-12-19T08:33:54;99210.00;;;-1.20
7389;BMP180;3735;50.136;11.062;2022-12-19T08:36:21;99211.00;;;-1.10
7389;BMP180;3735;50.136;11.062;2022-12-19T08:38:48;99199.00;;;-1.10
7389;BMP180;3735;50.136;11.062;2022-12-19T08:41:15;99197.00;;;-1.10
7389;BMP180;3735;50.136;11.062;2022-12-19T08:43:47;99202.00;;;-1.10
7389;BMP180;3735;50.136;11.062;2022-12-19T08:46:13;99211.00;;;-1.10
7389;BMP180;3735;50.136;11.062;2022-12-19T08:48:39;99208.00;;;-1.10
7389;BMP180;3735;50.136;11.062;2022-12-19T08:51:07;99206.00;;;-1.10
7389;BMP180;3735;50.136;11.062;2022-12-19T08:53:37;99213.00;;;-1.00
7389;BMP180;3735;50.136;11.062;2022-12-19T08:56:11;99207.00;;;-1.10
7389;BMP180;3735;50.136;11.062;2022-12-19T08:58:38;99198.00;;;-1.10
7389;BMP180;3735;50.136;11.062;2022-12-19T09:01:07;99194.00;;;-1.10
7389;BMP180;3735;50.136;11.062;2022-12-19T09:03:34;99198.00;;;-1.10
7389;BMP180;3735;50.136;11.062;2022-12-19T09:06:03;99187.00;;;-0.90
7389;BMP180;3735;50.136;11.062;2022-12-19T09:08:31;99165.00;;;-0.80
7389;BMP180;3735;50.136;11.062;2022-12-19T09:11:03;99185.00;;;-0.90
7389;BMP180;3735;50.136;11.062;2022-12-19T09:13:30;99172.00;;;-0.70
7389;BMP180;3735;50.136;11.062;2022-12-19T09:16:24;99175.00;;;-0.70
7389;BMP180;3735;50.136;11.062;2022-12-19T09:18:53;99170.00;;;-0.70
7389;BMP180;3735;50.136;11.062;2022-12-19T09:21:22;99172.00;;;-0.70
7389;BMP180;3735;50.136;11.062;2022-12-19T09:23:54;99177.00;;;-0.60
7389;BMP180;3735;50.136;11.062;2022-12-19T09:26:22;99178.00;;;-0.70
7389;BMP180;3735;50.136;11.062;2022-12-19T09:28:48;99186.00;;;-0.80
7389;BMP180;3735;50.136;11.062;2022-12-19T09:31:22;99194.00;;;-0.60
7389;BMP180;3735;50.136;11.062;2022-12-19T09:33:49;99192.00;;;-0.70
7389;BMP180;3735;50.136;11.062;2022-12-19T09:36:19;99187.00;;;-0.60
7389;BMP180;3735;50.136;11.062;2022-12-19T09:38:46;99193.00;;;-0.60
7389;BMP180;3735;50.136;11.062;2022-12-19T09:47:17;99206.00;;;-0.40
7389;BMP180;3735;50.136;11.062;2022-12-19T09:49:46;99214.00;;;-0.40
7389;BMP180;3735;50.136;11.062;2022-12-19T09:52:40;99187.00;;;-0.40
7389;BMP180;3735;50.136;11.062;2022-12-19T09:55:21;99196.00;;;-0.50
7389;BMP180;3735;50.136;11.062;2022-12-19T09:58:12;99193.00;;;-0.50
7389;BMP180;3735;50.136;11.062;2022-12-19T10:00:50;99191.00;;;-0.40
7389;BMP180;3735;50.136;11.062;2022-12-19T10:03:35;99195.00;;;-0.30
7389;BMP180;3735;50.136;11.062;2022-12-19T10:06:30;99190.00;;;-0.30
7389;BMP180;3735;50.136;11.062;2022-12-19T10:08:58;99187.00;;;-0.20
7389;BMP180;3735;50.136;11.062;2022-12-19T10:18:30;99189.00;;;-0.20
7389;BMP180;3735;50.136;11.062;2022-12-19T10:21:13;99188.00;;;-0.20
7389;BMP180;3735;50.136;11.062;2022-12-19T10:26:45;99180.00;;;-0.30
7389;BMP180;3735;50.136;11.062;2022-12-19T10:29:53;99166.00;;;-0.40
7389;BMP180;3735;50.136;11.062;2022-12-19T10:33:14;99153.00;;;-0.30
7389;BMP180;3735;50.136;11.062;2022-12-19T10:35:45;99147.00;;;-0.50
7389;BMP180;3735;50.136;11.062;2022-12-19T10:38:23;99150.00;;;-0.50
7389;BMP180;3735;50.136;11.062;2022-12-19T10:44:03;99150.00;;;-0.40
7389;BMP180;3735;50.136;11.062;2022-12-19T10:46:42;99143.00;;;-0.10
7389;BMP180;3735;50.136;11.062;2022-12-19T10:49:24;99128.00;;;0.00
7389;BMP180;3735;50.136;11.062;2022-12-19T10:52:46;99131.00;;;0.30
7389;BMP180;3735;50.136;11.062;2022-12-19T10:58:24;99121.00;;;0.10
7389;BMP180;3735;50.136;11.062;2022-12-19T11:03:42;99112.00;;;0.30
7389;BMP180;3735;50.136;11.062;2022-12-19T11:09:24;99099.00;;;0.50
7389;BMP180;3735;50.136;11.062;2022-12-19T11:14:31;99092.00;;;0.50
7389;BMP180;3735;50.136;11.062;2022-12-19T11:16:57;99091.00;;;0.50
7389;BMP180;3735;50.136;11.062;2022-12-19T11:19:35;99095.00;;;0.50
7389;BMP180;3735;50.136;11.062;2022-12-19T11:22:18;99083.00;;;0.60
7389;BMP180;3735;50.136;11.062;2022-12-19T11:24:51;99073.00;;;0.50
7389;BMP180;3735;50.136;11.062;2022-12-19T11:30:27;99063.00;;;0.50
7389;BMP180;3735;50.136;11.062;2022-12-19T11:33:26;99065.00;;;0.50
7389;BMP180;3735;50.136;11.062;2022-12-19T11:35:56;99056.00;;;0.60
7389;BMP180;3735;50.136;11.062;2022-12-19T11:38:52;99063.00;;;0.60
7389;BMP180;3735;50.136;11.062;2022-12-19T11:41:40;99068.00;;;0.60
7389;BMP180;3735;50.136;11.062;2022-12-19T11:44:25;99059.00;;;0.70
7389;BMP180;3735;50.136;11.062;2022-12-19T11:49:50;99033.00;;;0.80
7389;BMP180;3735;50.136;11.062;2022-12-19T11:52:48;99037.00;;;0.80
7389;BMP180;3735;50.136;11.062;2022-12-19T11:55:53;99027.00;;;0.90
7389;BMP180;3735;50.136;11.062;2022-12-19T11:58:24;99026.00;;;0.80
7389;BMP180;3735;50.136;11.062;2022-12-19T12:01:11;99030.00;;;1.00
7389;BMP180;3735;50.136;11.062;2022-12-19T12:04:18;99037.00;;;1.00
7389;BMP180;3735;50.136;11.062;2022-12-19T12:06:54;99027.00;;;1.10
7389;BMP180;3735;50.136;11.062;2022-12-19T12:14:45;99018.00;;;1.10
7389;BMP180;3735;50.136;11.062;2022-12-19T12:20:35;99020.00;;;1.00
7389;BMP180;3735;50.136;11.062;2022-12-19T12:26:12;99021.00;;;1.10
7389;BMP180;3735;50.136;11.062;2022-12-19T12:32:03;99020.00;;;1.20
7389;BMP180;3735;50.136;11.062;2022-12-19T12:34:48;99019.00;;;1.10
7389;BMP180;3735;50.136;11.062;2022-12-19T12:44:06;98988.00;;;1.10
7389;BMP180;3735;50.136;11.062;2022-12-19T12:47:20;98986.00;;;1.20
7389;BMP180;3735;50.136;11.062;2022-12-19T12:50:07;98988.00;;;1.30
7389;BMP180;3735;50.136;11.062;2022-12-19T12:52:48;98963.00;;;1.10
7389;BMP180;3735;50.136;11.062;2022-12-19T12:55:31;98991.00;;;1.20
7389;BMP180;3735;50.136;11.062;2022-12-19T12:57:57;99004.00;;;1.10
7389;BMP180;3735;50.136;11.062;2022-12-19T13:00:27;98981.00;;;1.10
7389;BMP180;3735;50.136;11.062;2022-12-19T13:08:47;98977.00;;;1.10
7389;BMP180;3735;50.136;11.062;2022-12-19T13:17:05;98960.00;;;1.20
7389;BMP180;3735;50.136;11.062;2022-12-19T13:19:35;98963.00;;;1.10
7389;BMP180;3735;50.136;11.062;2022-12-19T13:24:44;98955.00;;;0.90
7389;BMP180;3735;50.136;11.062;2022-12-19T13:38:19;98972.00;;;1.10
7389;BMP180;3735;50.136;11.062;2022-12-19T13:41:01;98969.00;;;0.90
7389;BMP180;3735;50.136;11.062;2022-12-19T13:43:47;98980.00;;;1.00
7389;BMP180;3735;50.136;11.062;2022-12-19T13:46:42;98984.00;;;1.00
7389;BMP180;3735;50.136;11.062;2022-12-19T13:49:32;98985.00;;;1.00
7389;BMP180;3735;50.136;11.062;2022-12-19T13:51:58;98960.00;;;1.00
7389;BMP180;3735;50.136;11.062;2022-12-19T13:54:35;98976.00;;;1.00
7389;BMP180;3735;50.136;11.062;2022-12-19T13:57:01;98953.00;;;1.10
7389;BMP180;3735;50.136;11.062;2022-12-19T13:59:36;98971.00;;;1.00
7389;BMP180;3735;50.136;11.062;2022-12-19T14:02:22;98967.00;;;1.00
7389;BMP180;3735;50.136;11.062;2022-12-19T14:04:50;98978.00;;;1.00
7389;BMP180;3735;50.136;11.062;2022-12-19T14:07:38;98968.00;;;1.00
7389;BMP180;3735;50.136;11.062;2022-12-19T14:10:15;98960.00;;;1.10
7389;BMP180;3735;50.136;11.062;2022-12-19T14:12:45;98965.00;;;1.00
7389;BMP180;3735;50.136;11.062;2022-12-19T14:15:38;98962.00;;;1.10
7389;BMP180;3735;50.136;11.062;2022-12-19T14:18:29;98968.00;;;1.00
7389;BMP180;3735;50.136;11.062;2022-12-19T14:21:24;98966.00;;;1.00
7389;BMP180;3735;50.136;11.062;2022-12-19T14:24:13;98957.00;;;1.00
7389;BMP180;3735;50.136;11.062;2022-12-19T14:26:40;98944.00;;;1.00
7389;BMP180;3735;50.136;11.062;2022-12-19T14:29:35;98956.00;;;0.90
7389;BMP180;3735;50.136;11.062;2022-12-19T14:32:05;98953.00;;;1.00
7389;BMP180;3735;50.136;11.062;2022-12-19T14:34:35;98956.00;;;1.00
7389;BMP180;3735;50.136;11.062;2022-12-19T14:37:01;98955.00;;;1.00
7389;BMP180;3735;50.136;11.062;2022-12-19T14:39:33;98961.00;;;0.90
7389;BMP180;3735;50.136;11.062;2022-12-19T14:42:11;98959.00;;;1.00
7389;BMP180;3735;50.136;11.062;2022-12-19T14:44:57;98944.00;;;0.90
7389;BMP180;3735;50.136;11.062;2022-12-19T14:47:37;98938.00;;;0.90
7389;BMP180;3735;50.136;11.062;2022-12-19T14:50:29;98947.00;;;0.90
7389;BMP180;3735;50.136;11.062;2022-12-19T14:53:20;98946.00;;;0.80
7389;BMP180;3735;50.136;11.062;2022-12-19T14:55:46;98941.00;;;0.80
7389;BMP180;3735;50.136;11.062;2022-12-19T15:00:51;98935.00;;;0.80
7389;BMP180;3735;50.136;11.062;2022-12-19T15:03:32;98948.00;;;0.80
7389;BMP180;3735;50.136;11.062;2022-12-19T15:06:07;98941.00;;;0.70
7389;BMP180;3735;50.136;11.062;2022-12-19T15:08:35;98935.00;;;0.70
7389;BMP180;3735;50.136;11.062;2022-12-19T15:11:05;98939.00;;;0.70
7389;BMP180;3735;50.136;11.062;2022-12-19T15:13:57;98935.00;;;0.70
7389;BMP180;3735;50.136;11.062;2022-12-19T15:16:30;98920.00;;;0.70
7389;BMP180;3735;50.136;11.062;2022-12-19T15:18:58;98916.00;;;0.70
7389;BMP180;3735;50.136;11.062;2022-12-19T15:21:26;98917.00;;;0.70
7389;BMP180;3735;50.136;11.062;2022-12-19T15:23:52;98940.00;;;0.70
7389;BMP180;3735;50.136;11.062;2022-12-19T15:26:32;98934.00;;;0.60
7389;BMP180;3735;50.136;11.062;2022-12-19T15:28:59;98944.00;;;0.60
7389;BMP180;3735;50.136;11.062;2022-12-19T15:31:36;98934.00;;;0.60
7389;BMP180;3735;50.136;11.062;2022-12-19T15:34:29;98924.00;;;0.60
7389;BMP180;3735;50.136;11.062;2022-12-19T15:36:56;98921.00;;;0.60
7389;BMP180;3735;50.136;11.062;2022-12-19T15:39:24;98901.00;;;0.60
7389;BMP180;3735;50.136;11.062;2022-12-19T15:41:53;98920.00;;;0.60
7389;BMP180;3735;50.136;11.062;2022-12-19T15:44:23;98924.00;;;0.60
7389;BMP180;3735;50.136;11.062;2022-12-19T15:46:49;98912.00;;;0.50
7389;BMP180;3735;50.136;11.062;2022-12-19T15:49:20;98923.00;;;0.50
7389;BMP180;3735;50.136;11.062;2022-12-19T15:51:47;98913.00;;;0.50
7389;BMP180;3735;50.136;11.062;2022-12-19T15:54:13;98902.00;;;0.50
7389;BMP180;3735;50.136;11.062;2022-12-19T15:56:50;98923.00;;;0.50
7389;BMP180;3735;50.136;11.062;2022-12-19T15:59:30;98923.00;;;0.50
7389;BMP180;3735;50.136;11.062;2022-12-19T16:01:57;98918.00;;;0.50
7389;BMP180;3735;50.136;11.062;2022-12-19T16:04:27;98912.00;;;0.40
7389;BMP180;3735;50.136;11.062;2022-12-19T16:06:53;98917.00;;;0.30
7389;BMP180;3735;50.136;11.062;2022-12-19T16:09:25;98905.00;;;0.40
7389;BMP180;3735;50.136;11.062;2022-12-19T16:11:53;98896.00;;;0.40
7389;BMP180;3735;50.136;11.062;2022-12-19T16:14:23;98878.00;;;0.50
7389;BMP180;3735;50.136;11.062;2022-12-19T16:16:53;98862.00;;;0.50
7389;BMP180;3735;50.136;11.062;2022-12-19T16:19:29;98887.00;;;0.50
7389;BMP180;3735;50.136;11.062;2022-12-19T16:21:57;98872.00;;;0.50
7389;BMP180;3735;50.136;11.062;2022-12-19T16:24:23;98850.00;;;0.50
7389;BMP180;3735;50.136;11.062;2022-12-19T16:26:54;98885.00;;;0.40
7389;BMP180;3735;50.136;11.062;2022-12-19T16:29:25;98885.00;;;0.40
7389;BMP180;3735;50.136;11.062;2022-12-19T16:31:52;98901.00;;;0.30
7389;BMP180;3735;50.136;11.062;2022-12-19T16:34:21;98895.00;;;0.30
7389;BMP180;3735;50.136;11.062;2022-12-19T16:36:47;98875.00;;;0.30
7389;BMP180;3735;50.136;11.062;2022-12-19T16:39:14;98875.00;;;0.40
7389;BMP180;3735;50.136;11.062;2022-12-19T16:41:41;98853.00;;;0.60
7389;BMP180;3735;50.136;11.062;2022-12-19T16:44:20;98873.00;;;0.50
7389;BMP180;3735;50.136;11.062;2022-12-19T16:46:47;98879.00;;;0.50
7389;BMP180;3735;50.136;11.062;2022-12-19T16:49:20;98872.00;;;0.50
7389;BMP180;3735;50.136;11.062;2022-12-19T16:51:47;98852.00;;;0.40
7389;BMP180;3735;50.136;11.062;2022-12-19T16:54:14;98864.00;;;0.30
7389;BMP180;3735;50.136;11.062;2022-12-19T16:56:50;98863.00;;;0.30
7389;BMP180;3735;50.136;11.062;2022-12-19T16:59:36;98853.00;;;0.30